Terminal Aerodrome Forecast
Issued by NWS Charleston, WV

Home | Current Version | Previous Version | Text Only | Print | Product List | Glossary On
Versions: 1 2 3 4 5 6 7 8 9 10 11 12 13 14 15 16 17 18 19 20 21 22 23 24 25 26 27 28 29 30 31
000
FTUS41 KRLX 231100
TAFHTS
TAF
KHTS 231123Z 2312/2412 34005KT P6SM OVC035
     FM231500 32003KT P6SM SCT025 SCT200=

USA.gov is the U.S. government's official web portal to all federal, state and local government web resources and services.